sensor_id;sensor_type;location;lat;lon;timestamp;P1;durP1;ratioP1;P2;durP2;ratioP2
9481;SDS011;4779;48.062;11.672;2023-12-22T00:00:58;1.20;;;0.70;;
9481;SDS011;4779;48.062;11.672;2023-12-22T00:03:25;1.80;;;0.57;;
9481;SDS011;4779;48.062;11.672;2023-12-22T00:05:52;2.67;;;0.77;;
9481;SDS011;4779;48.062;11.672;2023-12-22T00:08:19;1.37;;;0.80;;
9481;SDS011;4779;48.062;11.672;2023-12-22T00:10:46;2.70;;;1.00;;
9481;SDS011;4779;48.062;11.672;2023-12-22T00:13:14;1.13;;;0.70;;
9481;SDS011;4779;48.062;11.672;2023-12-22T00:15:41;1.93;;;0.90;;
9481;SDS011;4779;48.062;11.672;2023-12-22T00:18:08;0.77;;;0.77;;
9481;SDS011;4779;48.062;11.672;2023-12-22T00:20:35;0.70;;;0.50;;
9481;SDS011;4779;48.062;11.672;2023-12-22T00:23:02;1.30;;;0.67;;
9481;SDS011;4779;48.062;11.672;2023-12-22T00:25:30;0.97;;;0.50;;
9481;SDS011;4779;48.062;11.672;2023-12-22T00:27:57;0.30;;;0.30;;
9481;SDS011;4779;48.062;11.672;2023-12-22T00:30:25;2.50;;;0.40;;
9481;SDS011;4779;48.062;11.672;2023-12-22T00:32:52;0.47;;;0.30;;
9481;SDS011;4779;48.062;11.672;2023-12-22T00:35:19;1.10;;;0.33;;
9481;SDS011;4779;48.062;11.672;2023-12-22T00:37:46;0.23;;;0.23;;
9481;SDS011;4779;48.062;11.672;2023-12-22T00:40:13;0.50;;;0.30;;
9481;SDS011;4779;48.062;11.672;2023-12-22T00:42:43;0.20;;;0.20;;
9481;SDS011;4779;48.062;11.672;2023-12-22T00:45:10;0.20;;;0.20;;
9481;SDS011;4779;48.062;11.672;2023-12-22T00:47:39;0.30;;;0.30;;
9481;SDS011;4779;48.062;11.672;2023-12-22T00:50:06;0.17;;;0.17;;
9481;SDS011;4779;48.062;11.672;2023-12-22T00:52:34;0.57;;;0.30;;
9481;SDS011;4779;48.062;11.672;2023-12-22T00:55:01;0.80;;;0.40;;
9481;SDS011;4779;48.062;11.672;2023-12-22T00:57:28;0.30;;;0.30;;
9481;SDS011;4779;48.062;11.672;2023-12-22T00:59:56;0.20;;;0.20;;
9481;SDS011;4779;48.062;11.672;2023-12-22T01:02:23;0.83;;;0.40;;
9481;SDS011;4779;48.062;11.672;2023-12-22T01:04:51;0.30;;;0.30;;
9481;SDS011;4779;48.062;11.672;2023-12-22T01:07:18;0.43;;;0.40;;
9481;SDS011;4779;48.062;11.672;2023-12-22T01:09:45;0.57;;;0.40;;
9481;SDS011;4779;48.062;11.672;2023-12-22T01:12:13;0.80;;;0.50;;
9481;SDS011;4779;48.062;11.672;2023-12-22T01:14:40;0.50;;;0.30;;
9481;SDS011;4779;48.062;11.672;2023-12-22T01:17:10;0.33;;;0.33;;
9481;SDS011;4779;48.062;11.672;2023-12-22T01:19:37;0.30;;;0.30;;
9481;SDS011;4779;48.062;11.672;2023-12-22T01:22:06;0.50;;;0.50;;
9481;SDS011;4779;48.062;11.672;2023-12-22T01:24:33;0.40;;;0.40;;
9481;SDS011;4779;48.062;11.672;2023-12-22T01:27:04;0.57;;;0.30;;
9481;SDS011;4779;48.062;11.672;2023-12-22T01:29:31;0.43;;;0.40;;
9481;SDS011;4779;48.062;11.672;2023-12-22T01:31:58;0.40;;;0.40;;
9481;SDS011;4779;48.062;11.672;2023-12-22T01:34:25;0.33;;;0.30;;
9481;SDS011;4779;48.062;11.672;2023-12-22T01:36:52;0.37;;;0.37;;
9481;SDS011;4779;48.062;11.672;2023-12-22T01:39:21;0.30;;;0.30;;
9481;SDS011;4779;48.062;11.672;2023-12-22T01:41:48;0.30;;;0.30;;
9481;SDS011;4779;48.062;11.672;2023-12-22T01:44:15;0.40;;;0.40;;
9481;SDS011;4779;48.062;11.672;2023-12-22T01:46:42;0.73;;;0.40;;
9481;SDS011;4779;48.062;11.672;2023-12-22T01:49:09;0.47;;;0.47;;
9481;SDS011;4779;48.062;11.672;2023-12-22T01:51:37;0.60;;;0.30;;
9481;SDS011;4779;48.062;11.672;2023-12-22T01:54:06;0.30;;;0.30;;
9481;SDS011;4779;48.062;11.672;2023-12-22T01:56:34;0.83;;;0.40;;
9481;SDS011;4779;48.062;11.672;2023-12-22T01:59:02;0.30;;;0.30;;
9481;SDS011;4779;48.062;11.672;2023-12-22T02:01:29;0.23;;;0.23;;
9481;SDS011;4779;48.062;11.672;2023-12-22T02:03:57;0.30;;;0.30;;
9481;SDS011;4779;48.062;11.672;2023-12-22T02:06:25;0.20;;;0.20;;
9481;SDS011;4779;48.062;11.672;2023-12-22T02:08:52;0.50;;;0.30;;
9481;SDS011;4779;48.062;11.672;2023-12-22T02:11:20;0.40;;;0.40;;
9481;SDS011;4779;48.062;11.672;2023-12-22T02:13:49;0.30;;;0.30;;
9481;SDS011;4779;48.062;11.672;2023-12-22T02:16:17;0.30;;;0.30;;
9481;SDS011;4779;48.062;11.672;2023-12-22T02:18:49;0.20;;;0.20;;
9481;SDS011;4779;48.062;11.672;2023-12-22T02:21:19;0.40;;;0.40;;
9481;SDS011;4779;48.062;11.672;2023-12-22T02:23:48;0.23;;;0.23;;
9481;SDS011;4779;48.062;11.672;2023-12-22T02:26:17;0.20;;;0.20;;
9481;SDS011;4779;48.062;11.672;2023-12-22T02:28:51;0.97;;;0.27;;
9481;SDS011;4779;48.062;11.672;2023-12-22T02:31:22;0.40;;;0.30;;
9481;SDS011;4779;48.062;11.672;2023-12-22T02:33:53;0.20;;;0.20;;
9481;SDS011;4779;48.062;11.672;2023-12-22T02:36:24;0.50;;;0.27;;
9481;SDS011;4779;48.062;11.672;2023-12-22T02:38:55;0.77;;;0.40;;
9481;SDS011;4779;48.062;11.672;2023-12-22T02:41:23;0.20;;;0.20;;
9481;SDS011;4779;48.062;11.672;2023-12-22T02:43:51;0.20;;;0.20;;
9481;SDS011;4779;48.062;11.672;2023-12-22T02:46:18;0.20;;;0.20;;
9481;SDS011;4779;48.062;11.672;2023-12-22T02:48:45;0.20;;;0.20;;
9481;SDS011;4779;48.062;11.672;2023-12-22T02:51:12;0.13;;;0.13;;
9481;SDS011;4779;48.062;11.672;2023-12-22T02:53:39;0.30;;;0.30;;
9481;SDS011;4779;48.062;11.672;2023-12-22T02:56:07;0.20;;;0.20;;
9481;SDS011;4779;48.062;11.672;2023-12-22T02:58:34;0.13;;;0.13;;
9481;SDS011;4779;48.062;11.672;2023-12-22T03:01:01;0.27;;;0.20;;
9481;SDS011;4779;48.062;11.672;2023-12-22T03:03:29;0.50;;;0.27;;
9481;SDS011;4779;48.062;11.672;2023-12-22T03:05:56;0.40;;;0.40;;
9481;SDS011;4779;48.062;11.672;2023-12-22T03:08:23;0.27;;;0.27;;
9481;SDS011;4779;48.062;11.672;2023-12-22T03:10:49;0.30;;;0.30;;
9481;SDS011;4779;48.062;11.672;2023-12-22T03:13:18;0.30;;;0.30;;
9481;SDS011;4779;48.062;11.672;2023-12-22T03:15:45;0.30;;;0.30;;
9481;SDS011;4779;48.062;11.672;2023-12-22T03:18:13;0.20;;;0.20;;
9481;SDS011;4779;48.062;11.672;2023-12-22T03:20:40;0.27;;;0.27;;
9481;SDS011;4779;48.062;11.672;2023-12-22T03:23:07;0.30;;;0.30;;
9481;SDS011;4779;48.062;11.672;2023-12-22T03:25:34;0.20;;;0.20;;
9481;SDS011;4779;48.062;11.672;2023-12-22T03:28:01;0.20;;;0.20;;
9481;SDS011;4779;48.062;11.672;2023-12-22T03:30:29;0.20;;;0.20;;
9481;SDS011;4779;48.062;11.672;2023-12-22T03:32:56;0.10;;;0.10;;
9481;SDS011;4779;48.062;11.672;2023-12-22T03:35:23;0.20;;;0.20;;
9481;SDS011;4779;48.062;11.672;2023-12-22T03:37:50;0.30;;;0.30;;
9481;SDS011;4779;48.062;11.672;2023-12-22T03:40:17;0.20;;;0.20;;
9481;SDS011;4779;48.062;11.672;2023-12-22T03:42:44;0.20;;;0.20;;
9481;SDS011;4779;48.062;11.672;2023-12-22T03:45:11;0.40;;;0.40;;
9481;SDS011;4779;48.062;11.672;2023-12-22T03:47:40;0.40;;;0.40;;
9481;SDS011;4779;48.062;11.672;2023-12-22T03:50:07;0.20;;;0.20;;
9481;SDS011;4779;48.062;11.672;2023-12-22T03:52:34;0.20;;;0.20;;
9481;SDS011;4779;48.062;11.672;2023-12-22T03:55:01;0.30;;;0.30;;
9481;SDS011;4779;48.062;11.672;2023-12-22T03:57:29;1.03;;;0.60;;
9481;SDS011;4779;48.062;11.672;2023-12-22T03:59:56;0.40;;;0.40;;
9481;SDS011;4779;48.062;11.672;2023-12-22T04:02:23;1.00;;;0.50;;
9481;SDS011;4779;48.062;11.672;2023-12-22T04:04:51;0.87;;;0.50;;
9481;SDS011;4779;48.062;11.672;2023-12-22T04:07:18;1.00;;;0.40;;
9481;SDS011;4779;48.062;11.672;2023-12-22T04:09:45;1.77;;;0.50;;
9481;SDS011;4779;48.062;11.672;2023-12-22T04:12:12;1.60;;;0.60;;
9481;SDS011;4779;48.062;11.672;2023-12-22T04:14:42;1.07;;;0.50;;
9481;SDS011;4779;48.062;11.672;2023-12-22T04:17:10;1.70;;;0.60;;
9481;SDS011;4779;48.062;11.672;2023-12-22T04:19:37;1.73;;;0.70;;
9481;SDS011;4779;48.062;11.672;2023-12-22T04:22:05;1.63;;;0.43;;
9481;SDS011;4779;48.062;11.672;2023-12-22T04:24:32;1.60;;;0.50;;
9481;SDS011;4779;48.062;11.672;2023-12-22T04:26:59;3.30;;;0.77;;
9481;SDS011;4779;48.062;11.672;2023-12-22T04:29:26;1.67;;;0.50;;
9481;SDS011;4779;48.062;11.672;2023-12-22T04:31:53;1.70;;;0.60;;
9481;SDS011;4779;48.062;11.672;2023-12-22T04:34:20;3.57;;;0.80;;
9481;SDS011;4779;48.062;11.672;2023-12-22T04:36:47;1.60;;;0.70;;
9481;SDS011;4779;48.062;11.672;2023-12-22T04:39:15;1.30;;;0.77;;
9481;SDS011;4779;48.062;11.672;2023-12-22T04:41:43;3.77;;;0.80;;
9481;SDS011;4779;48.062;11.672;2023-12-22T04:44:10;1.70;;;0.53;;
9481;SDS011;4779;48.062;11.672;2023-12-22T04:46:37;4.00;;;0.77;;
9481;SDS011;4779;48.062;11.672;2023-12-22T04:49:04;4.30;;;1.00;;
9481;SDS011;4779;48.062;11.672;2023-12-22T04:51:31;1.70;;;0.90;;
9481;SDS011;4779;48.062;11.672;2023-12-22T04:53:58;2.37;;;0.80;;
9481;SDS011;4779;48.062;11.672;2023-12-22T04:56:26;1.93;;;0.80;;
9481;SDS011;4779;48.062;11.672;2023-12-22T04:58:53;1.80;;;0.77;;
9481;SDS011;4779;48.062;11.672;2023-12-22T05:01:20;1.93;;;0.77;;
9481;SDS011;4779;48.062;11.672;2023-12-22T05:03:47;3.97;;;1.07;;
9481;SDS011;4779;48.062;11.672;2023-12-22T05:06:14;1.80;;;0.80;;
9481;SDS011;4779;48.062;11.672;2023-12-22T05:08:41;2.20;;;0.87;;
9481;SDS011;4779;48.062;11.672;2023-12-22T05:11:08;3.80;;;0.90;;
9481;SDS011;4779;48.062;11.672;2023-12-22T05:13:37;2.97;;;1.17;;
9481;SDS011;4779;48.062;11.672;2023-12-22T05:16:05;2.23;;;0.80;;
9481;SDS011;4779;48.062;11.672;2023-12-22T05:18:32;2.17;;;0.70;;
9481;SDS011;4779;48.062;11.672;2023-12-22T05:20:59;4.40;;;0.93;;
9481;SDS011;4779;48.062;11.672;2023-12-22T05:23:26;1.43;;;0.73;;
9481;SDS011;4779;48.062;11.672;2023-12-22T05:25:53;1.47;;;0.70;;
9481;SDS011;4779;48.062;11.672;2023-12-22T05:28:20;2.20;;;0.50;;
9481;SDS011;4779;48.062;11.672;2023-12-22T05:30:49;2.67;;;1.00;;
9481;SDS011;4779;48.062;11.672;2023-12-22T05:33:16;1.03;;;0.83;;
9481;SDS011;4779;48.062;11.672;2023-12-22T05:35:43;1.93;;;1.00;;
9481;SDS011;4779;48.062;11.672;2023-12-22T05:38:10;1.93;;;1.07;;
9481;SDS011;4779;48.062;11.672;2023-12-22T05:40:37;1.43;;;0.70;;
9481;SDS011;4779;48.062;11.672;2023-12-22T05:43:04;0.60;;;0.60;;
9481;SDS011;4779;48.062;11.672;2023-12-22T05:45:31;2.90;;;1.10;;
9481;SDS011;4779;48.062;11.672;2023-12-22T05:47:59;0.93;;;0.60;;
9481;SDS011;4779;48.062;11.672;2023-12-22T05:50:26;2.47;;;0.93;;
9481;SDS011;4779;48.062;11.672;2023-12-22T05:52:53;1.33;;;0.80;;
9481;SDS011;4779;48.062;11.672;2023-12-22T05:55:20;2.80;;;0.90;;
9481;SDS011;4779;48.062;11.672;2023-12-22T05:57:47;2.43;;;0.80;;
9481;SDS011;4779;48.062;11.672;2023-12-22T06:00:15;2.67;;;1.00;;
9481;SDS011;4779;48.062;11.672;2023-12-22T06:02:42;2.63;;;0.80;;
9481;SDS011;4779;48.062;11.672;2023-12-22T06:05:13;2.77;;;0.77;;
9481;SDS011;4779;48.062;11.672;2023-12-22T06:07:40;4.10;;;0.80;;
9481;SDS011;4779;48.062;11.672;2023-12-22T06:10:08;1.43;;;0.60;;
9481;SDS011;4779;48.062;11.672;2023-12-22T06:12:35;0.80;;;0.80;;
9481;SDS011;4779;48.062;11.672;2023-12-22T06:15:02;2.33;;;0.90;;
9481;SDS011;4779;48.062;11.672;2023-12-22T06:17:30;1.70;;;0.90;;
9481;SDS011;4779;48.062;11.672;2023-12-22T06:19:57;1.37;;;0.90;;
9481;SDS011;4779;48.062;11.672;2023-12-22T06:22:26;2.50;;;0.80;;
9481;SDS011;4779;48.062;11.672;2023-12-22T06:24:53;2.40;;;1.00;;
9481;SDS011;4779;48.062;11.672;2023-12-22T06:27:20;1.87;;;0.90;;
9481;SDS011;4779;48.062;11.672;2023-12-22T06:29:47;3.30;;;1.10;;
9481;SDS011;4779;48.062;11.672;2023-12-22T06:32:14;2.23;;;1.13;;
9481;SDS011;4779;48.062;11.672;2023-12-22T06:34:42;2.80;;;1.20;;
9481;SDS011;4779;48.062;11.672;2023-12-22T06:37:09;6.07;;;1.30;;
9481;SDS011;4779;48.062;11.672;2023-12-22T06:39:38;2.93;;;1.07;;
9481;SDS011;4779;48.062;11.672;2023-12-22T06:42:05;2.10;;;1.03;;
9481;SDS011;4779;48.062;11.672;2023-12-22T06:44:36;2.50;;;1.17;;
9481;SDS011;4779;48.062;11.672;2023-12-22T06:47:03;3.60;;;1.50;;
9481;SDS011;4779;48.062;11.672;2023-12-22T06:49:30;2.80;;;1.00;;
9481;SDS011;4779;48.062;11.672;2023-12-22T06:51:57;1.63;;;1.27;;
9481;SDS011;4779;48.062;11.672;2023-12-22T06:54:24;4.87;;;1.47;;
9481;SDS011;4779;48.062;11.672;2023-12-22T06:56:53;2.70;;;1.20;;
9481;SDS011;4779;48.062;11.672;2023-12-22T06:59:20;3.47;;;1.00;;
9481;SDS011;4779;48.062;11.672;2023-12-22T07:01:47;3.73;;;1.30;;
9481;SDS011;4779;48.062;11.672;2023-12-22T07:04:14;3.23;;;1.23;;
9481;SDS011;4779;48.062;11.672;2023-12-22T07:06:41;3.37;;;1.17;;
9481;SDS011;4779;48.062;11.672;2023-12-22T07:11:56;3.37;;;1.30;;
9481;SDS011;4779;48.062;11.672;2023-12-22T07:14:23;2.97;;;1.40;;
9481;SDS011;4779;48.062;11.672;2023-12-22T07:16:50;1.63;;;1.13;;
9481;SDS011;4779;48.062;11.672;2023-12-22T07:19:17;5.27;;;1.33;;
9481;SDS011;4779;48.062;11.672;2023-12-22T07:21:44;2.70;;;1.37;;
9481;SDS011;4779;48.062;11.672;2023-12-22T07:24:11;2.97;;;1.20;;
9481;SDS011;4779;48.062;11.672;2023-12-22T07:26:38;3.37;;;1.87;;
9481;SDS011;4779;48.062;11.672;2023-12-22T07:29:06;3.40;;;1.67;;
9481;SDS011;4779;48.062;11.672;2023-12-22T07:31:33;5.40;;;1.60;;
9481;SDS011;4779;48.062;11.672;2023-12-22T07:34:00;4.83;;;1.47;;
9481;SDS011;4779;48.062;11.672;2023-12-22T07:36:28;3.80;;;1.40;;
9481;SDS011;4779;48.062;11.672;2023-12-22T07:38:55;3.43;;;1.33;;
9481;SDS011;4779;48.062;11.672;2023-12-22T07:41:24;2.97;;;1.30;;
9481;SDS011;4779;48.062;11.672;2023-12-22T07:43:51;3.87;;;1.30;;
9481;SDS011;4779;48.062;11.672;2023-12-22T07:46:19;2.97;;;1.60;;
9481;SDS011;4779;48.062;11.672;2023-12-22T07:48:47;3.47;;;1.33;;
9481;SDS011;4779;48.062;11.672;2023-12-22T07:51:14;5.03;;;1.30;;
9481;SDS011;4779;48.062;11.672;2023-12-22T07:53:41;3.33;;;1.40;;
9481;SDS011;4779;48.062;11.672;2023-12-22T07:56:09;3.90;;;1.43;;
9481;SDS011;4779;48.062;11.672;2023-12-22T07:58:36;6.63;;;1.40;;
9481;SDS011;4779;48.062;11.672;2023-12-22T08:01:04;4.53;;;1.20;;
9481;SDS011;4779;48.062;11.672;2023-12-22T08:03:33;3.97;;;1.80;;
9481;SDS011;4779;48.062;11.672;2023-12-22T08:06:00;3.90;;;1.80;;
9481;SDS011;4779;48.062;11.672;2023-12-22T08:08:27;3.57;;;1.67;;
9481;SDS011;4779;48.062;11.672;2023-12-22T08:10:54;2.43;;;1.60;;
9481;SDS011;4779;48.062;11.672;2023-12-22T08:13:21;2.17;;;1.27;;
9481;SDS011;4779;48.062;11.672;2023-12-22T08:15:48;3.37;;;1.10;;
9481;SDS011;4779;48.062;11.672;2023-12-22T08:18:15;3.17;;;1.40;;
9481;SDS011;4779;48.062;11.672;2023-12-22T08:20:43;4.87;;;1.20;;
9481;SDS011;4779;48.062;11.672;2023-12-22T08:23:13;3.37;;;1.00;;
9481;SDS011;4779;48.062;11.672;2023-12-22T08:25:40;3.13;;;1.20;;
9481;SDS011;4779;48.062;11.672;2023-12-22T08:28:07;2.43;;;0.80;;
9481;SDS011;4779;48.062;11.672;2023-12-22T08:30:34;1.97;;;1.10;;
9481;SDS011;4779;48.062;11.672;2023-12-22T08:33:02;2.00;;;0.80;;
9481;SDS011;4779;48.062;11.672;2023-12-22T08:35:29;2.37;;;0.70;;
9481;SDS011;4779;48.062;11.672;2023-12-22T08:37:58;2.70;;;1.20;;
9481;SDS011;4779;48.062;11.672;2023-12-22T08:40:25;4.47;;;1.33;;
9481;SDS011;4779;48.062;11.672;2023-12-22T08:42:52;3.03;;;1.50;;
9481;SDS011;4779;48.062;11.672;2023-12-22T08:45:24;4.23;;;1.57;;
9481;SDS011;4779;48.062;11.672;2023-12-22T08:47:53;2.47;;;1.43;;
9481;SDS011;4779;48.062;11.672;2023-12-22T08:50:21;4.50;;;1.80;;
9481;SDS011;4779;48.062;11.672;2023-12-22T08:52:48;2.73;;;1.00;;
9481;SDS011;4779;48.062;11.672;2023-12-22T08:55:16;1.03;;;0.70;;
9481;SDS011;4779;48.062;11.672;2023-12-22T08:57:43;4.90;;;1.10;;
9481;SDS011;4779;48.062;11.672;2023-12-22T09:00:11;3.37;;;1.07;;
9481;SDS011;4779;48.062;11.672;2023-12-22T09:02:38;3.30;;;1.20;;
9481;SDS011;4779;48.062;11.672;2023-12-22T09:05:06;2.80;;;1.00;;
9481;SDS011;4779;48.062;11.672;2023-12-22T09:07:36;2.87;;;1.40;;
9481;SDS011;4779;48.062;11.672;2023-12-22T09:10:04;2.87;;;1.20;;
9481;SDS011;4779;48.062;11.672;2023-12-22T09:12:33;4.70;;;1.27;;
9481;SDS011;4779;48.062;11.672;2023-12-22T09:15:00;3.50;;;1.20;;
9481;SDS011;4779;48.062;11.672;2023-12-22T09:17:28;3.23;;;1.20;;
9481;SDS011;4779;48.062;11.672;2023-12-22T09:19:58;3.77;;;1.50;;
9481;SDS011;4779;48.062;11.672;2023-12-22T09:22:25;1.70;;;1.17;;
9481;SDS011;4779;48.062;11.672;2023-12-22T09:24:52;5.87;;;1.97;;
9481;SDS011;4779;48.062;11.672;2023-12-22T09:27:19;3.43;;;1.50;;
9481;SDS011;4779;48.062;11.672;2023-12-22T09:29:50;2.50;;;1.37;;
9481;SDS011;4779;48.062;11.672;2023-12-22T09:32:17;5.33;;;1.77;;
9481;SDS011;4779;48.062;11.672;2023-12-22T09:34:46;5.23;;;1.77;;
9481;SDS011;4779;48.062;11.672;2023-12-22T09:37:20;3.07;;;1.30;;
9481;SDS011;4779;48.062;11.672;2023-12-22T09:39:47;7.40;;;2.17;;
9481;SDS011;4779;48.062;11.672;2023-12-22T09:42:14;4.23;;;1.57;;
9481;SDS011;4779;48.062;11.672;2023-12-22T09:44:41;6.33;;;1.67;;
9481;SDS011;4779;48.062;11.672;2023-12-22T09:47:10;2.77;;;1.20;;
9481;SDS011;4779;48.062;11.672;2023-12-22T09:49:39;2.67;;;1.10;;
9481;SDS011;4779;48.062;11.672;2023-12-22T09:52:08;3.97;;;1.13;;
9481;SDS011;4779;48.062;11.672;2023-12-22T09:54:36;2.27;;;0.97;;
9481;SDS011;4779;48.062;11.672;2023-12-22T09:57:04;2.03;;;0.87;;
9481;SDS011;4779;48.062;11.672;2023-12-22T09:59:34;2.43;;;1.00;;
9481;SDS011;4779;48.062;11.672;2023-12-22T10:02:02;1.57;;;0.90;;
9481;SDS011;4779;48.062;11.672;2023-12-22T10:04:34;2.00;;;0.70;;
9481;SDS011;4779;48.062;11.672;2023-12-22T10:07:01;1.23;;;0.70;;
9481;SDS011;4779;48.062;11.672;2023-12-22T10:09:29;1.70;;;0.63;;
9481;SDS011;4779;48.062;11.672;2023-12-22T10:11:57;0.93;;;0.60;;
9481;SDS011;4779;48.062;11.672;2023-12-22T10:14:26;1.23;;;0.70;;
9481;SDS011;4779;48.062;11.672;2023-12-22T10:16:53;1.23;;;0.60;;
9481;SDS011;4779;48.062;11.672;2023-12-22T10:19:21;1.33;;;0.60;;
9481;SDS011;4779;48.062;11.672;2023-12-22T10:21:49;2.03;;;0.67;;
9481;SDS011;4779;48.062;11.672;2023-12-22T10:27:08;1.67;;;0.47;;
9481;SDS011;4779;48.062;11.672;2023-12-22T10:29:36;0.40;;;0.40;;
9481;SDS011;4779;48.062;11.672;2023-12-22T10:32:03;0.70;;;0.70;;
9481;SDS011;4779;48.062;11.672;2023-12-22T10:34:31;4.80;;;0.60;;
9481;SDS011;4779;48.062;11.672;2023-12-22T10:37:00;1.77;;;0.60;;
9481;SDS011;4779;48.062;11.672;2023-12-22T10:39:27;0.83;;;0.40;;
9481;SDS011;4779;48.062;11.672;2023-12-22T10:41:55;0.43;;;0.40;;
9481;SDS011;4779;48.062;11.672;2023-12-22T10:44:23;0.93;;;0.60;;
9481;SDS011;4779;48.062;11.672;2023-12-22T10:46:50;1.57;;;0.70;;
9481;SDS011;4779;48.062;11.672;2023-12-22T10:49:18;0.70;;;0.50;;
9481;SDS011;4779;48.062;11.672;2023-12-22T10:51:45;0.73;;;0.60;;
9481;SDS011;4779;48.062;11.672;2023-12-22T10:54:14;1.57;;;1.10;;
9481;SDS011;4779;48.062;11.672;2023-12-22T10:56:42;1.10;;;0.87;;
9481;SDS011;4779;48.062;11.672;2023-12-22T10:59:09;2.90;;;1.20;;
9481;SDS011;4779;48.062;11.672;2023-12-22T11:01:37;1.90;;;1.07;;
9481;SDS011;4779;48.062;11.672;2023-12-22T11:04:05;2.47;;;1.80;;
9481;SDS011;4779;48.062;11.672;2023-12-22T11:06:35;1.37;;;1.27;;
9481;SDS011;4779;48.062;11.672;2023-12-22T11:09:06;2.60;;;1.10;;
9481;SDS011;4779;48.062;11.672;2023-12-22T11:11:36;2.83;;;1.43;;
9481;SDS011;4779;48.062;11.672;2023-12-22T11:14:04;3.37;;;1.20;;
9481;SDS011;4779;48.062;11.672;2023-12-22T11:16:33;3.60;;;1.03;;
9481;SDS011;4779;48.062;11.672;2023-12-22T11:19:01;1.67;;;1.27;;
9481;SDS011;4779;48.062;11.672;2023-12-22T11:21:29;2.10;;;1.17;;
9481;SDS011;4779;48.062;11.672;2023-12-22T11:23:57;2.93;;;1.07;;
9481;SDS011;4779;48.062;11.672;2023-12-22T11:26:24;3.57;;;1.40;;
9481;SDS011;4779;48.062;11.672;2023-12-22T11:28:53;3.87;;;1.20;;
9481;SDS011;4779;48.062;11.672;2023-12-22T11:31:20;2.13;;;0.83;;
9481;SDS011;4779;48.062;11.672;2023-12-22T11:33:47;4.13;;;1.20;;
9481;SDS011;4779;48.062;11.672;2023-12-22T11:36:16;4.83;;;1.40;;
9481;SDS011;4779;48.062;11.672;2023-12-22T11:38:45;3.37;;;1.20;;
9481;SDS011;4779;48.062;11.672;2023-12-22T11:41:12;3.03;;;1.20;;
9481;SDS011;4779;48.062;11.672;2023-12-22T11:43:44;2.53;;;1.10;;
9481;SDS011;4779;48.062;11.672;2023-12-22T11:46:13;3.20;;;1.10;;
9481;SDS011;4779;48.062;11.672;2023-12-22T11:48:46;3.97;;;1.10;;
9481;SDS011;4779;48.062;11.672;2023-12-22T11:51:14;2.20;;;1.10;;
9481;SDS011;4779;48.062;11.672;2023-12-22T11:53:42;2.40;;;0.97;;
9481;SDS011;4779;48.062;11.672;2023-12-22T11:56:09;1.93;;;0.77;;
9481;SDS011;4779;48.062;11.672;2023-12-22T11:58:38;2.47;;;1.20;;
9481;SDS011;4779;48.062;11.672;2023-12-22T12:01:07;1.50;;;0.97;;
9481;SDS011;4779;48.062;11.672;2023-12-22T12:03:37;2.43;;;0.90;;
9481;SDS011;4779;48.062;11.672;2023-12-22T12:06:11;2.80;;;1.20;;
9481;SDS011;4779;48.062;11.672;2023-12-22T12:08:41;3.23;;;0.83;;
9481;SDS011;4779;48.062;11.672;2023-12-22T12:11:08;3.80;;;1.30;;
9481;SDS011;4779;48.062;11.672;2023-12-22T12:13:36;3.67;;;1.30;;
9481;SDS011;4779;48.062;11.672;2023-12-22T12:16:08;3.33;;;1.23;;
9481;SDS011;4779;48.062;11.672;2023-12-22T12:18:38;3.07;;;1.53;;
9481;SDS011;4779;48.062;11.672;2023-12-22T12:21:06;3.93;;;1.40;;
9481;SDS011;4779;48.062;11.672;2023-12-22T12:23:34;5.47;;;1.80;;
9481;SDS011;4779;48.062;11.672;2023-12-22T12:26:01;3.00;;;1.77;;
9481;SDS011;4779;48.062;11.672;2023-12-22T12:28:29;2.20;;;1.13;;
9481;SDS011;4779;48.062;11.672;2023-12-22T12:30:58;2.87;;;1.63;;
9481;SDS011;4779;48.062;11.672;2023-12-22T12:33:27;5.20;;;2.20;;
9481;SDS011;4779;48.062;11.672;2023-12-22T12:35:56;4.33;;;1.30;;
9481;SDS011;4779;48.062;11.672;2023-12-22T12:38:28;5.67;;;3.23;;
9481;SDS011;4779;48.062;11.672;2023-12-22T12:41:03;5.20;;;2.50;;
9481;SDS011;4779;48.062;11.672;2023-12-22T12:43:31;4.63;;;1.43;;
9481;SDS011;4779;48.062;11.672;2023-12-22T12:46:03;6.27;;;2.53;;
9481;SDS011;4779;48.062;11.672;2023-12-22T12:48:30;3.90;;;1.70;;
9481;SDS011;4779;48.062;11.672;2023-12-22T12:51:02;4.83;;;1.80;;
9481;SDS011;4779;48.062;11.672;2023-12-22T12:53:30;2.97;;;1.30;;
9481;SDS011;4779;48.062;11.672;2023-12-22T12:55:58;4.50;;;1.53;;
9481;SDS011;4779;48.062;11.672;2023-12-22T12:58:28;4.57;;;1.40;;
9481;SDS011;4779;48.062;11.672;2023-12-22T13:01:06;3.50;;;1.53;;
9481;SDS011;4779;48.062;11.672;2023-12-22T13:06:19;5.47;;;1.67;;
9481;SDS011;4779;48.062;11.672;2023-12-22T13:08:49;2.43;;;1.23;;
9481;SDS011;4779;48.062;11.672;2023-12-22T13:11:20;2.13;;;0.97;;
9481;SDS011;4779;48.062;11.672;2023-12-22T13:13:47;3.53;;;1.80;;
9481;SDS011;4779;48.062;11.672;2023-12-22T13:16:17;2.67;;;1.50;;
9481;SDS011;4779;48.062;11.672;2023-12-22T13:18:44;2.60;;;1.17;;
9481;SDS011;4779;48.062;11.672;2023-12-22T13:21:11;2.00;;;0.93;;
9481;SDS011;4779;48.062;11.672;2023-12-22T13:23:41;2.97;;;1.03;;
9481;SDS011;4779;48.062;11.672;2023-12-22T13:26:17;2.17;;;0.90;;
9481;SDS011;4779;48.062;11.672;2023-12-22T13:28:45;1.57;;;0.90;;
9481;SDS011;4779;48.062;11.672;2023-12-22T13:31:12;2.60;;;1.10;;
9481;SDS011;4779;48.062;11.672;2023-12-22T13:33:40;1.23;;;1.00;;
9481;SDS011;4779;48.062;11.672;2023-12-22T13:36:07;3.37;;;1.10;;
9481;SDS011;4779;48.062;11.672;2023-12-22T13:38:34;3.30;;;1.10;;
9481;SDS011;4779;48.062;11.672;2023-12-22T13:41:03;3.23;;;1.00;;
9481;SDS011;4779;48.062;11.672;2023-12-22T13:43:30;1.20;;;0.80;;
9481;SDS011;4779;48.062;11.672;2023-12-22T13:45:57;2.93;;;1.20;;
9481;SDS011;4779;48.062;11.672;2023-12-22T13:48:25;3.33;;;1.43;;
9481;SDS011;4779;48.062;11.672;2023-12-22T13:50:56;1.57;;;1.20;;
9481;SDS011;4779;48.062;11.672;2023-12-22T13:53:24;2.37;;;1.20;;
9481;SDS011;4779;48.062;11.672;2023-12-22T13:55:54;2.73;;;1.60;;
9481;SDS011;4779;48.062;11.672;2023-12-22T13:58:23;2.90;;;1.40;;
9481;SDS011;4779;48.062;11.672;2023-12-22T14:00:50;3.30;;;1.50;;
9481;SDS011;4779;48.062;11.672;2023-12-22T14:03:17;3.17;;;1.73;;
9481;SDS011;4779;48.062;11.672;2023-12-22T14:05:46;2.77;;;1.30;;
9481;SDS011;4779;48.062;11.672;2023-12-22T14:08:13;2.47;;;1.13;;
9481;SDS011;4779;48.062;11.672;2023-12-22T14:10:44;2.83;;;1.33;;
9481;SDS011;4779;48.062;11.672;2023-12-22T14:13:12;2.07;;;1.37;;
9481;SDS011;4779;48.062;11.672;2023-12-22T14:15:40;1.70;;;1.00;;
9481;SDS011;4779;48.062;11.672;2023-12-22T14:18:08;2.00;;;1.30;;
9481;SDS011;4779;48.062;11.672;2023-12-22T14:20:35;2.10;;;0.90;;
9481;SDS011;4779;48.062;11.672;2023-12-22T14:23:02;1.33;;;0.90;;
9481;SDS011;4779;48.062;11.672;2023-12-22T14:25:29;1.23;;;0.83;;
9481;SDS011;4779;48.062;11.672;2023-12-22T14:27:57;0.80;;;0.80;;
9481;SDS011;4779;48.062;11.672;2023-12-22T14:30:24;0.93;;;0.77;;
9481;SDS011;4779;48.062;11.672;2023-12-22T14:32:52;0.80;;;0.80;;
9481;SDS011;4779;48.062;11.672;2023-12-22T14:35:20;1.17;;;0.63;;
9481;SDS011;4779;48.062;11.672;2023-12-22T14:37:47;0.67;;;0.63;;
9481;SDS011;4779;48.062;11.672;2023-12-22T14:40:14;1.40;;;0.90;;
9481;SDS011;4779;48.062;11.672;2023-12-22T14:42:41;1.07;;;0.87;;
9481;SDS011;4779;48.062;11.672;2023-12-22T14:45:08;1.90;;;0.77;;
9481;SDS011;4779;48.062;11.672;2023-12-22T14:47:35;1.67;;;0.80;;
9481;SDS011;4779;48.062;11.672;2023-12-22T14:50:04;1.43;;;0.70;;
9481;SDS011;4779;48.062;11.672;2023-12-22T14:52:32;1.53;;;0.80;;
9481;SDS011;4779;48.062;11.672;2023-12-22T14:54:59;0.40;;;0.40;;
9481;SDS011;4779;48.062;11.672;2023-12-22T14:57:27;0.83;;;0.60;;
9481;SDS011;4779;48.062;11.672;2023-12-22T14:59:54;0.40;;;0.40;;
9481;SDS011;4779;48.062;11.672;2023-12-22T15:02:21;0.40;;;0.40;;
9481;SDS011;4779;48.062;11.672;2023-12-22T15:04:49;0.73;;;0.60;;
9481;SDS011;4779;48.062;11.672;2023-12-22T15:07:17;0.57;;;0.57;;
9481;SDS011;4779;48.062;11.672;2023-12-22T15:09:44;0.73;;;0.70;;
9481;SDS011;4779;48.062;11.672;2023-12-22T15:12:13;1.70;;;1.20;;